sensor_id;sensor_type;location;lat;lon;timestamp;P1;durP1;ratioP1;P2;durP2;ratioP2
3901;SDS011;1966;49.908;9.156;2024-02-26T00:01:43;2.50;;;2.30;;
3901;SDS011;1966;49.908;9.156;2024-02-26T00:06:42;2.50;;;2.30;;
3901;SDS011;1966;49.908;9.156;2024-02-26T00:11:42;4.53;;;3.30;;
3901;SDS011;1966;49.908;9.156;2024-02-26T00:16:41;4.80;;;3.20;;
3901;SDS011;1966;49.908;9.156;2024-02-26T00:21:42;4.23;;;3.10;;
3901;SDS011;1966;49.908;9.156;2024-02-26T00:26:41;6.03;;;3.67;;
3901;SDS011;1966;49.908;9.156;2024-02-26T00:31:40;4.83;;;3.63;;
3901;SDS011;1966;49.908;9.156;2024-02-26T00:36:39;4.20;;;3.03;;
3901;SDS011;1966;49.908;9.156;2024-02-26T00:41:40;4.60;;;3.53;;
3901;SDS011;1966;49.908;9.156;2024-02-26T00:46:40;3.40;;;2.83;;
3901;SDS011;1966;49.908;9.156;2024-02-26T00:51:40;2.83;;;2.60;;
3901;SDS011;1966;49.908;9.156;2024-02-26T00:56:41;3.50;;;2.80;;
3901;SDS011;1966;49.908;9.156;2024-02-26T01:01:40;4.83;;;3.37;;
3901;SDS011;1966;49.908;9.156;2024-02-26T01:06:39;3.23;;;2.90;;
3901;SDS011;1966;49.908;9.156;2024-02-26T01:11:40;5.83;;;3.33;;
3901;SDS011;1966;49.908;9.156;2024-02-26T01:16:39;3.40;;;3.10;;
3901;SDS011;1966;49.908;9.156;2024-02-26T01:21:38;3.20;;;2.90;;
3901;SDS011;1966;49.908;9.156;2024-02-26T01:26:38;2.93;;;2.60;;
3901;SDS011;1966;49.908;9.156;2024-02-26T01:31:39;3.30;;;3.00;;
3901;SDS011;1966;49.908;9.156;2024-02-26T01:36:38;2.97;;;2.77;;
3901;SDS011;1966;49.908;9.156;2024-02-26T01:41:37;3.90;;;3.17;;
3901;SDS011;1966;49.908;9.156;2024-02-26T01:46:36;4.77;;;3.03;;
3901;SDS011;1966;49.908;9.156;2024-02-26T01:51:37;3.90;;;3.00;;
3901;SDS011;1966;49.908;9.156;2024-02-26T01:56:38;4.33;;;3.10;;
3901;SDS011;1966;49.908;9.156;2024-02-26T02:01:37;4.20;;;2.90;;
3901;SDS011;1966;49.908;9.156;2024-02-26T02:06:40;3.43;;;3.13;;
3901;SDS011;1966;49.908;9.156;2024-02-26T02:11:40;3.90;;;2.93;;
3901;SDS011;1966;49.908;9.156;2024-02-26T02:16:40;3.40;;;3.10;;
3901;SDS011;1966;49.908;9.156;2024-02-26T02:21:40;6.30;;;3.70;;
3901;SDS011;1966;49.908;9.156;2024-02-26T02:26:40;4.03;;;3.40;;
3901;SDS011;1966;49.908;9.156;2024-02-26T02:31:39;3.83;;;3.27;;
3901;SDS011;1966;49.908;9.156;2024-02-26T02:36:49;5.97;;;3.10;;
3901;SDS011;1966;49.908;9.156;2024-02-26T02:41:48;3.70;;;3.10;;
3901;SDS011;1966;49.908;9.156;2024-02-26T02:46:48;3.90;;;3.50;;
3901;SDS011;1966;49.908;9.156;2024-02-26T02:51:50;4.80;;;2.90;;
3901;SDS011;1966;49.908;9.156;2024-02-26T02:56:51;4.60;;;3.67;;
3901;SDS011;1966;49.908;9.156;2024-02-26T03:01:50;5.23;;;3.43;;
3901;SDS011;1966;49.908;9.156;2024-02-26T03:06:51;3.67;;;3.37;;
3901;SDS011;1966;49.908;9.156;2024-02-26T03:11:50;6.73;;;4.13;;
3901;SDS011;1966;49.908;9.156;2024-02-26T03:16:50;3.60;;;3.30;;
3901;SDS011;1966;49.908;9.156;2024-02-26T03:21:53;4.00;;;3.53;;
3901;SDS011;1966;49.908;9.156;2024-02-26T03:26:52;3.90;;;3.30;;
3901;SDS011;1966;49.908;9.156;2024-02-26T03:31:51;4.30;;;3.40;;
3901;SDS011;1966;49.908;9.156;2024-02-26T03:36:50;4.67;;;3.93;;
3901;SDS011;1966;49.908;9.156;2024-02-26T03:41:51;6.17;;;4.43;;
3901;SDS011;1966;49.908;9.156;2024-02-26T03:46:50;4.90;;;3.70;;
3901;SDS011;1966;49.908;9.156;2024-02-26T03:51:50;4.43;;;3.70;;
3901;SDS011;1966;49.908;9.156;2024-02-26T03:56:49;6.60;;;3.67;;
3901;SDS011;1966;49.908;9.156;2024-02-26T04:01:50;4.00;;;3.60;;
3901;SDS011;1966;49.908;9.156;2024-02-26T04:06:49;4.87;;;3.90;;
3901;SDS011;1966;49.908;9.156;2024-02-26T04:11:48;4.30;;;3.90;;
3901;SDS011;1966;49.908;9.156;2024-02-26T04:16:47;4.00;;;3.60;;
3901;SDS011;1966;49.908;9.156;2024-02-26T04:21:50;4.03;;;3.63;;
3901;SDS011;1966;49.908;9.156;2024-02-26T04:26:50;4.70;;;3.60;;
3901;SDS011;1966;49.908;9.156;2024-02-26T04:31:49;6.97;;;4.10;;
3901;SDS011;1966;49.908;9.156;2024-02-26T04:36:48;6.87;;;3.77;;
3901;SDS011;1966;49.908;9.156;2024-02-26T04:41:49;5.13;;;4.07;;
3901;SDS011;1966;49.908;9.156;2024-02-26T04:46:48;5.73;;;4.27;;
3901;SDS011;1966;49.908;9.156;2024-02-26T04:51:47;8.43;;;4.90;;
3901;SDS011;1966;49.908;9.156;2024-02-26T04:56:48;5.87;;;4.83;;
3901;SDS011;1966;49.908;9.156;2024-02-26T05:01:48;5.13;;;4.37;;
3901;SDS011;1966;49.908;9.156;2024-02-26T05:06:49;5.63;;;4.20;;
3901;SDS011;1966;49.908;9.156;2024-02-26T05:11:50;5.10;;;4.60;;
3901;SDS011;1966;49.908;9.156;2024-02-26T05:16:49;5.30;;;4.20;;
3901;SDS011;1966;49.908;9.156;2024-02-26T05:21:48;10.13;;;4.20;;
3901;SDS011;1966;49.908;9.156;2024-02-26T05:26:49;6.27;;;3.87;;
3901;SDS011;1966;49.908;9.156;2024-02-26T05:31:49;5.53;;;4.17;;
3901;SDS011;1966;49.908;9.156;2024-02-26T05:36:48;5.13;;;4.40;;
3901;SDS011;1966;49.908;9.156;2024-02-26T05:41:47;5.40;;;4.40;;
3901;SDS011;1966;49.908;9.156;2024-02-26T05:46:48;6.00;;;4.30;;
3901;SDS011;1966;49.908;9.156;2024-02-26T05:51:48;6.97;;;4.53;;
3901;SDS011;1966;49.908;9.156;2024-02-26T05:56:47;6.80;;;4.83;;
3901;SDS011;1966;49.908;9.156;2024-02-26T06:01:46;4.97;;;4.17;;
3901;SDS011;1966;49.908;9.156;2024-02-26T06:06:47;4.27;;;3.83;;
3901;SDS011;1966;49.908;9.156;2024-02-26T06:11:47;6.10;;;4.40;;
3901;SDS011;1966;49.908;9.156;2024-02-26T06:16:46;5.00;;;3.90;;
3901;SDS011;1966;49.908;9.156;2024-02-26T06:21:47;7.17;;;4.10;;
3901;SDS011;1966;49.908;9.156;2024-02-26T06:26:47;6.10;;;4.50;;
3901;SDS011;1966;49.908;9.156;2024-02-26T06:31:46;5.00;;;4.03;;
3901;SDS011;1966;49.908;9.156;2024-02-26T06:36:47;5.30;;;4.23;;
3901;SDS011;1966;49.908;9.156;2024-02-26T06:41:47;6.20;;;4.23;;
3901;SDS011;1966;49.908;9.156;2024-02-26T06:46:46;5.67;;;4.10;;
3901;SDS011;1966;49.908;9.156;2024-02-26T06:51:45;8.30;;;4.40;;
3901;SDS011;1966;49.908;9.156;2024-02-26T06:56:46;6.97;;;4.17;;
3901;SDS011;1966;49.908;9.156;2024-02-26T07:01:45;6.90;;;4.70;;
3901;SDS011;1966;49.908;9.156;2024-02-26T07:06:44;8.00;;;5.60;;
3901;SDS011;1966;49.908;9.156;2024-02-26T07:11:45;7.87;;;5.67;;
3901;SDS011;1966;49.908;9.156;2024-02-26T07:16:45;5.90;;;4.70;;
3901;SDS011;1966;49.908;9.156;2024-02-26T07:21:44;8.27;;;5.77;;
3901;SDS011;1966;49.908;9.156;2024-02-26T07:26:43;7.27;;;5.50;;
3901;SDS011;1966;49.908;9.156;2024-02-26T07:31:44;7.87;;;6.03;;
3901;SDS011;1966;49.908;9.156;2024-02-26T07:36:43;13.03;;;7.60;;
3901;SDS011;1966;49.908;9.156;2024-02-26T07:41:42;7.80;;;6.03;;
3901;SDS011;1966;49.908;9.156;2024-02-26T07:46:46;9.37;;;6.20;;
3901;SDS011;1966;49.908;9.156;2024-02-26T07:51:45;7.30;;;5.87;;
3901;SDS011;1966;49.908;9.156;2024-02-26T07:56:44;8.20;;;6.17;;
3901;SDS011;1966;49.908;9.156;2024-02-26T08:01:43;10.50;;;6.27;;
3901;SDS011;1966;49.908;9.156;2024-02-26T08:06:45;8.53;;;5.90;;
3901;SDS011;1966;49.908;9.156;2024-02-26T08:11:44;7.47;;;5.50;;
3901;SDS011;1966;49.908;9.156;2024-02-26T08:16:43;7.70;;;5.30;;
3901;SDS011;1966;49.908;9.156;2024-02-26T08:21:43;5.90;;;4.80;;
3901;SDS011;1966;49.908;9.156;2024-02-26T08:26:43;6.87;;;5.13;;
3901;SDS011;1966;49.908;9.156;2024-02-26T08:31:43;10.17;;;5.70;;
3901;SDS011;1966;49.908;9.156;2024-02-26T08:36:42;8.13;;;5.73;;
3901;SDS011;1966;49.908;9.156;2024-02-26T08:41:44;7.70;;;6.00;;
3901;SDS011;1966;49.908;9.156;2024-02-26T08:46:43;8.80;;;6.27;;
3901;SDS011;1966;49.908;9.156;2024-02-26T08:51:43;7.10;;;5.73;;
3901;SDS011;1966;49.908;9.156;2024-02-26T08:56:44;9.53;;;6.10;;
3901;SDS011;1966;49.908;9.156;2024-02-26T09:01:44;7.80;;;6.57;;
3901;SDS011;1966;49.908;9.156;2024-02-26T09:06:43;9.17;;;6.30;;
3901;SDS011;1966;49.908;9.156;2024-02-26T09:11:42;8.50;;;6.70;;
3901;SDS011;1966;49.908;9.156;2024-02-26T09:16:43;9.90;;;6.83;;
3901;SDS011;1966;49.908;9.156;2024-02-26T09:21:42;9.60;;;6.23;;
3901;SDS011;1966;49.908;9.156;2024-02-26T09:26:41;10.63;;;7.07;;
3901;SDS011;1966;49.908;9.156;2024-02-26T09:31:42;12.63;;;7.80;;
3901;SDS011;1966;49.908;9.156;2024-02-26T09:36:45;10.27;;;6.63;;
3901;SDS011;1966;49.908;9.156;2024-02-26T09:41:44;8.63;;;6.60;;
3901;SDS011;1966;49.908;9.156;2024-02-26T09:46:45;10.83;;;6.83;;
3901;SDS011;1966;49.908;9.156;2024-02-26T09:51:44;10.70;;;6.37;;
3901;SDS011;1966;49.908;9.156;2024-02-26T09:56:44;9.97;;;7.17;;
3901;SDS011;1966;49.908;9.156;2024-02-26T10:01:46;9.40;;;7.17;;
3901;SDS011;1966;49.908;9.156;2024-02-26T10:06:46;9.80;;;8.07;;
3901;SDS011;1966;49.908;9.156;2024-02-26T10:11:46;11.47;;;8.00;;
3901;SDS011;1966;49.908;9.156;2024-02-26T10:16:48;8.23;;;6.70;;
3901;SDS011;1966;49.908;9.156;2024-02-26T10:21:47;11.47;;;7.40;;
3901;SDS011;1966;49.908;9.156;2024-02-26T10:26:47;9.67;;;7.27;;
3901;SDS011;1966;49.908;9.156;2024-02-26T10:31:47;11.83;;;6.70;;
3901;SDS011;1966;49.908;9.156;2024-02-26T10:36:46;11.10;;;7.00;;
3901;SDS011;1966;49.908;9.156;2024-02-26T10:41:46;11.10;;;7.33;;
3901;SDS011;1966;49.908;9.156;2024-02-26T10:46:47;9.80;;;7.73;;
3901;SDS011;1966;49.908;9.156;2024-02-26T10:51:48;8.60;;;6.93;;
3901;SDS011;1966;49.908;9.156;2024-02-26T10:56:49;11.13;;;7.53;;
3901;SDS011;1966;49.908;9.156;2024-02-26T11:01:50;9.93;;;7.70;;
3901;SDS011;1966;49.908;9.156;2024-02-26T11:06:50;8.87;;;6.53;;
3901;SDS011;1966;49.908;9.156;2024-02-26T11:11:50;8.40;;;5.97;;
3901;SDS011;1966;49.908;9.156;2024-02-26T11:16:54;9.53;;;5.97;;
3901;SDS011;1966;49.908;9.156;2024-02-26T11:21:54;9.30;;;5.77;;
3901;SDS011;1966;49.908;9.156;2024-02-26T11:26:54;8.47;;;6.27;;
3901;SDS011;1966;49.908;9.156;2024-02-26T11:31:58;7.10;;;5.67;;
3901;SDS011;1966;49.908;9.156;2024-02-26T11:36:57;7.23;;;5.87;;
3901;SDS011;1966;49.908;9.156;2024-02-26T11:42:07;7.97;;;5.00;;
3901;SDS011;1966;49.908;9.156;2024-02-26T11:47:11;6.37;;;4.93;;
3901;SDS011;1966;49.908;9.156;2024-02-26T11:52:11;5.70;;;4.50;;
3901;SDS011;1966;49.908;9.156;2024-02-26T11:57:20;7.53;;;6.10;;
3901;SDS011;1966;49.908;9.156;2024-02-26T12:02:39;6.40;;;5.53;;
3901;SDS011;1966;49.908;9.156;2024-02-26T12:07:45;10.57;;;5.70;;
3901;SDS011;1966;49.908;9.156;2024-02-26T12:12:44;7.30;;;5.63;;
3901;SDS011;1966;49.908;9.156;2024-02-26T12:17:47;7.27;;;5.20;;
3901;SDS011;1966;49.908;9.156;2024-02-26T12:22:47;6.03;;;5.27;;
3901;SDS011;1966;49.908;9.156;2024-02-26T12:27:47;8.10;;;6.40;;
3901;SDS011;1966;49.908;9.156;2024-02-26T12:32:47;6.97;;;5.40;;
3901;SDS011;1966;49.908;9.156;2024-02-26T12:37:47;8.33;;;6.20;;
3901;SDS011;1966;49.908;9.156;2024-02-26T12:42:46;8.97;;;6.00;;
3901;SDS011;1966;49.908;9.156;2024-02-26T12:47:47;6.60;;;5.70;;
3901;SDS011;1966;49.908;9.156;2024-02-26T12:52:47;6.60;;;5.07;;
3901;SDS011;1966;49.908;9.156;2024-02-26T12:57:47;8.90;;;5.20;;
3901;SDS011;1966;49.908;9.156;2024-02-26T13:02:48;6.07;;;4.67;;
3901;SDS011;1966;49.908;9.156;2024-02-26T13:07:48;6.50;;;5.40;;
3901;SDS011;1966;49.908;9.156;2024-02-26T13:12:49;6.57;;;5.20;;
3901;SDS011;1966;49.908;9.156;2024-02-26T13:17:50;5.90;;;5.00;;
3901;SDS011;1966;49.908;9.156;2024-02-26T13:22:51;5.33;;;4.80;;
3901;SDS011;1966;49.908;9.156;2024-02-26T13:27:50;7.00;;;4.97;;
3901;SDS011;1966;49.908;9.156;2024-02-26T13:32:51;5.30;;;4.50;;
3901;SDS011;1966;49.908;9.156;2024-02-26T13:37:50;6.30;;;5.30;;
3901;SDS011;1966;49.908;9.156;2024-02-26T13:42:49;6.80;;;5.27;;
3901;SDS011;1966;49.908;9.156;2024-02-26T13:47:52;5.83;;;4.83;;
3901;SDS011;1966;49.908;9.156;2024-02-26T13:52:51;5.70;;;4.47;;
3901;SDS011;1966;49.908;9.156;2024-02-26T13:57:52;5.90;;;4.97;;
3901;SDS011;1966;49.908;9.156;2024-02-26T14:02:53;9.53;;;6.77;;
3901;SDS011;1966;49.908;9.156;2024-02-26T14:07:52;6.03;;;4.70;;
3901;SDS011;1966;49.908;9.156;2024-02-26T14:12:52;7.93;;;4.93;;
3901;SDS011;1966;49.908;9.156;2024-02-26T14:17:53;5.60;;;4.23;;
3901;SDS011;1966;49.908;9.156;2024-02-26T14:22:54;5.67;;;4.57;;
3901;SDS011;1966;49.908;9.156;2024-02-26T14:27:53;9.47;;;5.30;;
3901;SDS011;1966;49.908;9.156;2024-02-26T14:32:54;9.17;;;5.97;;
3901;SDS011;1966;49.908;9.156;2024-02-26T14:37:53;8.00;;;5.50;;
3901;SDS011;1966;49.908;9.156;2024-02-26T14:42:53;8.07;;;5.50;;
3901;SDS011;1966;49.908;9.156;2024-02-26T14:47:53;7.20;;;5.10;;
3901;SDS011;1966;49.908;9.156;2024-02-26T14:52:52;7.23;;;5.10;;
3901;SDS011;1966;49.908;9.156;2024-02-26T14:57:52;5.37;;;4.37;;
3901;SDS011;1966;49.908;9.156;2024-02-26T15:02:51;6.30;;;5.50;;
3901;SDS011;1966;49.908;9.156;2024-02-26T15:07:54;8.83;;;5.77;;
3901;SDS011;1966;49.908;9.156;2024-02-26T15:12:53;8.27;;;5.53;;
3901;SDS011;1966;49.908;9.156;2024-02-26T15:17:54;6.67;;;5.13;;
3901;SDS011;1966;49.908;9.156;2024-02-26T15:22:54;7.77;;;5.27;;
3901;SDS011;1966;49.908;9.156;2024-02-26T15:27:54;9.77;;;5.70;;
3901;SDS011;1966;49.908;9.156;2024-02-26T15:32:53;7.30;;;5.60;;
3901;SDS011;1966;49.908;9.156;2024-02-26T15:37:52;7.20;;;4.83;;
3901;SDS011;1966;49.908;9.156;2024-02-26T15:42:53;7.50;;;4.87;;
3901;SDS011;1966;49.908;9.156;2024-02-26T15:47:52;8.40;;;6.10;;
3901;SDS011;1966;49.908;9.156;2024-02-26T15:52:51;8.03;;;6.70;;
3901;SDS011;1966;49.908;9.156;2024-02-26T15:57:53;6.20;;;4.97;;
3901;SDS011;1966;49.908;9.156;2024-02-26T16:02:52;4.37;;;3.80;;
3901;SDS011;1966;49.908;9.156;2024-02-26T16:07:52;5.80;;;3.90;;
3901;SDS011;1966;49.908;9.156;2024-02-26T16:12:55;3.70;;;3.40;;
3901;SDS011;1966;49.908;9.156;2024-02-26T16:17:54;4.47;;;3.83;;
3901;SDS011;1966;49.908;9.156;2024-02-26T16:22:56;4.40;;;3.50;;
3901;SDS011;1966;49.908;9.156;2024-02-26T16:27:57;5.07;;;3.63;;
3901;SDS011;1966;49.908;9.156;2024-02-26T16:32:57;7.50;;;5.30;;
3901;SDS011;1966;49.908;9.156;2024-02-26T16:37:56;6.90;;;5.40;;
3901;SDS011;1966;49.908;9.156;2024-02-26T16:42:56;8.00;;;5.50;;
3901;SDS011;1966;49.908;9.156;2024-02-26T16:47:56;5.20;;;4.70;;
3901;SDS011;1966;49.908;9.156;2024-02-26T16:52:56;6.90;;;5.50;;
3901;SDS011;1966;49.908;9.156;2024-02-26T16:57:55;7.10;;;5.23;;
3901;SDS011;1966;49.908;9.156;2024-02-26T17:02:56;6.30;;;5.30;;
3901;SDS011;1966;49.908;9.156;2024-02-26T17:07:56;5.73;;;5.03;;
3901;SDS011;1966;49.908;9.156;2024-02-26T17:12:55;6.47;;;5.17;;
3901;SDS011;1966;49.908;9.156;2024-02-26T17:17:56;10.00;;;5.50;;
3901;SDS011;1966;49.908;9.156;2024-02-26T17:22:55;10.40;;;8.60;;
3901;SDS011;1966;49.908;9.156;2024-02-26T17:27:55;8.33;;;5.97;;
3901;SDS011;1966;49.908;9.156;2024-02-26T17:32:54;16.47;;;9.57;;
3901;SDS011;1966;49.908;9.156;2024-02-26T17:37:55;15.07;;;9.97;;
3901;SDS011;1966;49.908;9.156;2024-02-26T17:42:55;17.83;;;10.70;;
3901;SDS011;1966;49.908;9.156;2024-02-26T17:47:54;13.73;;;8.73;;
3901;SDS011;1966;49.908;9.156;2024-02-26T17:52:55;13.73;;;8.50;;
3901;SDS011;1966;49.908;9.156;2024-02-26T17:57:55;12.80;;;9.57;;
3901;SDS011;1966;49.908;9.156;2024-02-26T18:02:54;9.77;;;8.27;;
3901;SDS011;1966;49.908;9.156;2024-02-26T18:07:53;10.33;;;7.93;;
3901;SDS011;1966;49.908;9.156;2024-02-26T18:12:54;11.37;;;8.30;;
3901;SDS011;1966;49.908;9.156;2024-02-26T18:17:56;11.00;;;8.93;;
3901;SDS011;1966;49.908;9.156;2024-02-26T18:22:57;13.43;;;9.73;;
3901;SDS011;1966;49.908;9.156;2024-02-26T18:27:57;11.43;;;8.93;;
3901;SDS011;1966;49.908;9.156;2024-02-26T18:32:56;11.30;;;9.33;;
3901;SDS011;1966;49.908;9.156;2024-02-26T18:37:56;14.90;;;10.97;;
3901;SDS011;1966;49.908;9.156;2024-02-26T18:42:55;15.60;;;11.00;;
3901;SDS011;1966;49.908;9.156;2024-02-26T18:47:56;15.03;;;10.57;;
3901;SDS011;1966;49.908;9.156;2024-02-26T18:52:55;12.80;;;8.47;;
3901;SDS011;1966;49.908;9.156;2024-02-26T18:58:00;13.07;;;7.80;;
3901;SDS011;1966;49.908;9.156;2024-02-26T19:03:03;19.70;;;12.07;;
3901;SDS011;1966;49.908;9.156;2024-02-26T19:08:02;21.13;;;12.23;;
3901;SDS011;1966;49.908;9.156;2024-02-26T19:13:02;20.60;;;9.80;;
3901;SDS011;1966;49.908;9.156;2024-02-26T19:18:03;13.73;;;8.87;;
3901;SDS011;1966;49.908;9.156;2024-02-26T19:23:04;13.67;;;10.20;;
3901;SDS011;1966;49.908;9.156;2024-02-26T19:28:03;12.93;;;8.50;;
3901;SDS011;1966;49.908;9.156;2024-02-26T19:33:04;9.63;;;7.73;;
3901;SDS011;1966;49.908;9.156;2024-02-26T19:38:03;15.20;;;10.30;;
3901;SDS011;1966;49.908;9.156;2024-02-26T19:43:03;14.13;;;9.80;;
3901;SDS011;1966;49.908;9.156;2024-02-26T19:48:03;15.17;;;9.70;;
3901;SDS011;1966;49.908;9.156;2024-02-26T19:53:03;22.37;;;10.50;;
3901;SDS011;1966;49.908;9.156;2024-02-26T19:58:03;20.90;;;10.60;;
3901;SDS011;1966;49.908;9.156;2024-02-26T20:03:02;17.93;;;8.93;;
3901;SDS011;1966;49.908;9.156;2024-02-26T20:08:05;12.30;;;7.60;;
3901;SDS011;1966;49.908;9.156;2024-02-26T20:13:04;12.87;;;7.50;;
3901;SDS011;1966;49.908;9.156;2024-02-26T20:18:04;17.10;;;7.67;;
3901;SDS011;1966;49.908;9.156;2024-02-26T20:23:04;15.23;;;8.50;;
3901;SDS011;1966;49.908;9.156;2024-02-26T20:28:04;14.00;;;8.47;;
3901;SDS011;1966;49.908;9.156;2024-02-26T20:33:03;22.33;;;14.10;;
3901;SDS011;1966;49.908;9.156;2024-02-26T20:38:04;20.53;;;12.87;;
3901;SDS011;1966;49.908;9.156;2024-02-26T20:43:03;25.30;;;14.77;;
3901;SDS011;1966;49.908;9.156;2024-02-26T20:48:03;24.53;;;16.60;;
3901;SDS011;1966;49.908;9.156;2024-02-26T20:53:03;27.03;;;16.07;;
3901;SDS011;1966;49.908;9.156;2024-02-26T20:58:03;32.87;;;24.37;;
3901;SDS011;1966;49.908;9.156;2024-02-26T21:03:03;41.93;;;25.00;;
3901;SDS011;1966;49.908;9.156;2024-02-26T21:08:06;31.57;;;22.53;;
3901;SDS011;1966;49.908;9.156;2024-02-26T21:13:07;34.73;;;22.87;;
3901;SDS011;1966;49.908;9.156;2024-02-26T21:18:06;21.53;;;14.47;;
3901;SDS011;1966;49.908;9.156;2024-02-26T21:23:05;17.13;;;13.20;;
3901;SDS011;1966;49.908;9.156;2024-02-26T21:28:08;14.70;;;11.60;;
3901;SDS011;1966;49.908;9.156;2024-02-26T21:33:08;15.33;;;11.03;;
3901;SDS011;1966;49.908;9.156;2024-02-26T21:38:07;15.43;;;9.90;;
3901;SDS011;1966;49.908;9.156;2024-02-26T21:43:08;13.77;;;10.10;;
3901;SDS011;1966;49.908;9.156;2024-02-26T21:48:07;12.53;;;8.70;;
3901;SDS011;1966;49.908;9.156;2024-02-26T21:53:06;13.73;;;9.53;;
3901;SDS011;1966;49.908;9.156;2024-02-26T21:58:05;11.70;;;8.67;;
3901;SDS011;1966;49.908;9.156;2024-02-26T22:03:06;13.27;;;8.50;;
3901;SDS011;1966;49.908;9.156;2024-02-26T22:08:05;15.07;;;8.73;;
3901;SDS011;1966;49.908;9.156;2024-02-26T22:13:05;10.03;;;8.20;;
3901;SDS011;1966;49.908;9.156;2024-02-26T22:18:04;10.87;;;8.20;;
3901;SDS011;1966;49.908;9.156;2024-02-26T22:23:05;11.63;;;8.17;;
3901;SDS011;1966;49.908;9.156;2024-02-26T22:28:05;11.70;;;8.63;;
3901;SDS011;1966;49.908;9.156;2024-02-26T22:33:04;11.50;;;7.93;;
3901;SDS011;1966;49.908;9.156;2024-02-26T22:38:05;10.83;;;8.03;;
3901;SDS011;1966;49.908;9.156;2024-02-26T22:43:04;10.10;;;8.10;;
3901;SDS011;1966;49.908;9.156;2024-02-26T22:48:04;13.07;;;8.53;;
3901;SDS011;1966;49.908;9.156;2024-02-26T22:53:06;12.03;;;8.10;;
3901;SDS011;1966;49.908;9.156;2024-02-26T22:58:06;9.90;;;7.90;;
3901;SDS011;1966;49.908;9.156;2024-02-26T23:03:06;11.50;;;8.37;;
3901;SDS011;1966;49.908;9.156;2024-02-26T23:08:07;14.40;;;9.47;;
3901;SDS011;1966;49.908;9.156;2024-02-26T23:13:06;13.53;;;10.20;;
3901;SDS011;1966;49.908;9.156;2024-02-26T23:18:05;13.60;;;9.87;;
3901;SDS011;1966;49.908;9.156;2024-02-26T23:23:04;13.67;;;9.10;;
3901;SDS011;1966;49.908;9.156;2024-02-26T23:28:05;14.50;;;10.00;;
3901;SDS011;1966;49.908;9.156;2024-02-26T23:33:06;15.77;;;9.73;;
3901;SDS011;1966;49.908;9.156;2024-02-26T23:38:05;16.27;;;10.20;;
3901;SDS011;1966;49.908;9.156;2024-02-26T23:43:06;14.10;;;10.30;;
3901;SDS011;1966;49.908;9.156;2024-02-26T23:48:05;16.00;;;10.93;;
3901;SDS011;1966;49.908;9.156;2024-02-26T23:53:06;16.50;;;11.10;;
3901;SDS011;1966;49.908;9.156;2024-02-26T23:58:06;14.10;;;10.50;;
